sensor_id;sensor_type;location;lat;lon;timestamp;P1;durP1;ratioP1;P2;durP2;ratioP2
11078;SDS011;5592;49.234;7.268;2023-09-19T00:00:57;3.87;;;2.27;;
11078;SDS011;5592;49.234;7.268;2023-09-19T00:03:23;6.23;;;2.40;;
11078;SDS011;5592;49.234;7.268;2023-09-19T00:05:50;5.23;;;2.90;;
11078;SDS011;5592;49.234;7.268;2023-09-19T00:08:16;3.17;;;2.17;;
11078;SDS011;5592;49.234;7.268;2023-09-19T00:10:41;4.23;;;2.53;;
11078;SDS011;5592;49.234;7.268;2023-09-19T00:13:08;4.60;;;2.77;;
11078;SDS011;5592;49.234;7.268;2023-09-19T00:15:38;9.53;;;2.40;;
11078;SDS011;5592;49.234;7.268;2023-09-19T00:18:06;5.73;;;2.97;;
11078;SDS011;5592;49.234;7.268;2023-09-19T00:20:35;7.10;;;2.70;;
11078;SDS011;5592;49.234;7.268;2023-09-19T00:23:01;4.33;;;2.13;;
11078;SDS011;5592;49.234;7.268;2023-09-19T00:25:34;7.90;;;2.50;;
11078;SDS011;5592;49.234;7.268;2023-09-19T00:28:03;4.00;;;2.53;;
11078;SDS011;5592;49.234;7.268;2023-09-19T00:30:29;4.50;;;1.90;;
11078;SDS011;5592;49.234;7.268;2023-09-19T00:32:55;7.50;;;2.40;;
11078;SDS011;5592;49.234;7.268;2023-09-19T00:35:21;5.10;;;2.43;;
11078;SDS011;5592;49.234;7.268;2023-09-19T00:37:50;4.67;;;2.67;;
11078;SDS011;5592;49.234;7.268;2023-09-19T00:40:16;4.60;;;2.20;;
11078;SDS011;5592;49.234;7.268;2023-09-19T00:42:42;5.00;;;2.30;;
11078;SDS011;5592;49.234;7.268;2023-09-19T00:45:09;6.30;;;1.87;;
11078;SDS011;5592;49.234;7.268;2023-09-19T00:47:37;5.53;;;1.70;;
11078;SDS011;5592;49.234;7.268;2023-09-19T00:50:07;2.17;;;1.97;;
11078;SDS011;5592;49.234;7.268;2023-09-19T00:52:35;6.50;;;2.30;;
11078;SDS011;5592;49.234;7.268;2023-09-19T00:55:07;2.67;;;2.00;;
11078;SDS011;5592;49.234;7.268;2023-09-19T00:57:34;4.87;;;1.97;;
11078;SDS011;5592;49.234;7.268;2023-09-19T01:00:01;2.23;;;2.03;;
11078;SDS011;5592;49.234;7.268;2023-09-19T01:02:32;5.20;;;1.70;;
11078;SDS011;5592;49.234;7.268;2023-09-19T01:04:58;6.50;;;2.40;;
11078;SDS011;5592;49.234;7.268;2023-09-19T01:07:25;3.10;;;2.00;;
11078;SDS011;5592;49.234;7.268;2023-09-19T01:09:54;14.20;;;2.30;;
11078;SDS011;5592;49.234;7.268;2023-09-19T01:12:26;9.47;;;2.33;;
11078;SDS011;5592;49.234;7.268;2023-09-19T01:15:21;16.27;;;2.80;;
11078;SDS011;5592;49.234;7.268;2023-09-19T01:23:29;6.93;;;2.57;;
11078;SDS011;5592;49.234;7.268;2023-09-19T01:26:30;9.73;;;2.17;;
11078;SDS011;5592;49.234;7.268;2023-09-19T01:29:13;3.10;;;2.27;;
11078;SDS011;5592;49.234;7.268;2023-09-19T01:31:45;6.43;;;2.20;;
11078;SDS011;5592;49.234;7.268;2023-09-19T01:34:12;5.93;;;2.60;;
11078;SDS011;5592;49.234;7.268;2023-09-19T01:36:37;6.73;;;2.70;;
11078;SDS011;5592;49.234;7.268;2023-09-19T01:39:07;4.80;;;2.37;;
11078;SDS011;5592;49.234;7.268;2023-09-19T01:41:45;6.33;;;2.70;;
11078;SDS011;5592;49.234;7.268;2023-09-19T01:44:24;4.93;;;3.10;;
11078;SDS011;5592;49.234;7.268;2023-09-19T01:46:58;4.40;;;3.30;;
11078;SDS011;5592;49.234;7.268;2023-09-19T01:49:42;8.50;;;3.40;;
11078;SDS011;5592;49.234;7.268;2023-09-19T01:52:23;8.33;;;2.77;;
11078;SDS011;5592;49.234;7.268;2023-09-19T01:54:54;8.90;;;3.07;;
11078;SDS011;5592;49.234;7.268;2023-09-19T01:57:27;5.17;;;2.70;;
11078;SDS011;5592;49.234;7.268;2023-09-19T01:59:59;6.63;;;3.43;;
11078;SDS011;5592;49.234;7.268;2023-09-19T02:02:34;6.37;;;2.93;;
11078;SDS011;5592;49.234;7.268;2023-09-19T02:05:03;6.57;;;3.60;;
11078;SDS011;5592;49.234;7.268;2023-09-19T02:07:29;6.70;;;3.17;;
11078;SDS011;5592;49.234;7.268;2023-09-19T02:10:00;3.30;;;2.97;;
11078;SDS011;5592;49.234;7.268;2023-09-19T02:12:26;5.50;;;2.77;;
11078;SDS011;5592;49.234;7.268;2023-09-19T02:14:52;6.30;;;2.63;;
11078;SDS011;5592;49.234;7.268;2023-09-19T02:17:20;6.87;;;2.57;;
11078;SDS011;5592;49.234;7.268;2023-09-19T02:19:46;6.13;;;3.67;;
11078;SDS011;5592;49.234;7.268;2023-09-19T02:22:12;5.10;;;2.97;;
11078;SDS011;5592;49.234;7.268;2023-09-19T02:24:37;6.33;;;2.93;;
11078;SDS011;5592;49.234;7.268;2023-09-19T02:27:03;7.47;;;3.73;;
11078;SDS011;5592;49.234;7.268;2023-09-19T02:29:30;2.70;;;2.50;;
11078;SDS011;5592;49.234;7.268;2023-09-19T02:31:56;7.10;;;3.80;;
11078;SDS011;5592;49.234;7.268;2023-09-19T02:34:21;7.00;;;3.40;;
11078;SDS011;5592;49.234;7.268;2023-09-19T02:36:47;5.00;;;3.40;;
11078;SDS011;5592;49.234;7.268;2023-09-19T02:39:13;6.87;;;3.57;;
11078;SDS011;5592;49.234;7.268;2023-09-19T02:41:39;9.40;;;3.97;;
11078;SDS011;5592;49.234;7.268;2023-09-19T02:44:06;9.73;;;4.27;;
11078;SDS011;5592;49.234;7.268;2023-09-19T02:46:33;7.77;;;3.27;;
11078;SDS011;5592;49.234;7.268;2023-09-19T02:48:58;8.97;;;4.10;;
11078;SDS011;5592;49.234;7.268;2023-09-19T02:51:24;4.93;;;3.70;;
11078;SDS011;5592;49.234;7.268;2023-09-19T02:53:50;10.37;;;3.90;;
11078;SDS011;5592;49.234;7.268;2023-09-19T02:56:19;5.90;;;3.40;;
11078;SDS011;5592;49.234;7.268;2023-09-19T02:58:45;5.23;;;3.57;;
11078;SDS011;5592;49.234;7.268;2023-09-19T03:01:10;12.17;;;3.77;;
11078;SDS011;5592;49.234;7.268;2023-09-19T03:03:44;10.43;;;3.80;;
11078;SDS011;5592;49.234;7.268;2023-09-19T03:06:10;6.20;;;3.90;;
11078;SDS011;5592;49.234;7.268;2023-09-19T03:08:38;6.90;;;3.93;;
11078;SDS011;5592;49.234;7.268;2023-09-19T03:11:16;12.60;;;3.97;;
11078;SDS011;5592;49.234;7.268;2023-09-19T03:13:43;7.87;;;4.20;;
11078;SDS011;5592;49.234;7.268;2023-09-19T03:16:09;9.73;;;3.80;;
11078;SDS011;5592;49.234;7.268;2023-09-19T03:18:35;12.93;;;4.07;;
11078;SDS011;5592;49.234;7.268;2023-09-19T03:21:01;5.90;;;3.17;;
11078;SDS011;5592;49.234;7.268;2023-09-19T03:23:27;7.00;;;3.20;;
11078;SDS011;5592;49.234;7.268;2023-09-19T03:25:53;8.83;;;3.50;;
11078;SDS011;5592;49.234;7.268;2023-09-19T03:28:19;8.77;;;3.77;;
11078;SDS011;5592;49.234;7.268;2023-09-19T03:30:56;6.03;;;3.27;;
11078;SDS011;5592;49.234;7.268;2023-09-19T03:33:26;9.37;;;3.07;;
11078;SDS011;5592;49.234;7.268;2023-09-19T03:35:52;9.10;;;3.40;;
11078;SDS011;5592;49.234;7.268;2023-09-19T03:38:18;7.93;;;3.67;;
11078;SDS011;5592;49.234;7.268;2023-09-19T03:40:44;3.67;;;3.37;;
11078;SDS011;5592;49.234;7.268;2023-09-19T03:43:10;5.47;;;3.00;;
11078;SDS011;5592;49.234;7.268;2023-09-19T03:45:35;4.70;;;2.70;;
11078;SDS011;5592;49.234;7.268;2023-09-19T03:48:07;4.03;;;2.33;;
11078;SDS011;5592;49.234;7.268;2023-09-19T03:50:36;8.53;;;3.40;;
11078;SDS011;5592;49.234;7.268;2023-09-19T03:53:01;6.73;;;2.67;;
11078;SDS011;5592;49.234;7.268;2023-09-19T03:55:27;8.70;;;3.00;;
11078;SDS011;5592;49.234;7.268;2023-09-19T03:57:54;4.93;;;2.70;;
11078;SDS011;5592;49.234;7.268;2023-09-19T04:00:20;7.20;;;3.30;;
11078;SDS011;5592;49.234;7.268;2023-09-19T04:02:48;5.23;;;3.00;;
11078;SDS011;5592;49.234;7.268;2023-09-19T04:05:14;7.00;;;3.83;;
11078;SDS011;5592;49.234;7.268;2023-09-19T04:07:39;12.03;;;3.30;;
11078;SDS011;5592;49.234;7.268;2023-09-19T04:10:05;10.27;;;3.23;;
11078;SDS011;5592;49.234;7.268;2023-09-19T04:12:33;5.97;;;2.90;;
11078;SDS011;5592;49.234;7.268;2023-09-19T04:14:59;11.93;;;3.50;;
11078;SDS011;5592;49.234;7.268;2023-09-19T04:17:24;7.10;;;3.40;;
11078;SDS011;5592;49.234;7.268;2023-09-19T04:19:50;5.53;;;3.30;;
11078;SDS011;5592;49.234;7.268;2023-09-19T04:22:16;9.87;;;3.20;;
11078;SDS011;5592;49.234;7.268;2023-09-19T04:24:42;9.93;;;3.13;;
11078;SDS011;5592;49.234;7.268;2023-09-19T04:27:07;10.97;;;3.57;;
11078;SDS011;5592;49.234;7.268;2023-09-19T04:29:34;9.53;;;4.00;;
11078;SDS011;5592;49.234;7.268;2023-09-19T04:32:00;10.67;;;4.43;;
11078;SDS011;5592;49.234;7.268;2023-09-19T04:34:26;8.13;;;4.33;;
11078;SDS011;5592;49.234;7.268;2023-09-19T04:36:52;6.63;;;4.03;;
11078;SDS011;5592;49.234;7.268;2023-09-19T04:39:18;8.60;;;4.10;;
11078;SDS011;5592;49.234;7.268;2023-09-19T04:41:43;8.03;;;4.20;;
11078;SDS011;5592;49.234;7.268;2023-09-19T04:44:09;12.10;;;3.90;;
11078;SDS011;5592;49.234;7.268;2023-09-19T04:46:35;10.63;;;3.90;;
11078;SDS011;5592;49.234;7.268;2023-09-19T04:49:01;9.33;;;3.90;;
11078;SDS011;5592;49.234;7.268;2023-09-19T04:51:27;11.23;;;4.20;;
11078;SDS011;5592;49.234;7.268;2023-09-19T04:53:57;8.73;;;4.20;;
11078;SDS011;5592;49.234;7.268;2023-09-19T04:56:23;9.53;;;4.03;;
11078;SDS011;5592;49.234;7.268;2023-09-19T04:58:49;9.33;;;4.07;;
11078;SDS011;5592;49.234;7.268;2023-09-19T05:01:14;8.20;;;3.27;;
11078;SDS011;5592;49.234;7.268;2023-09-19T05:03:41;7.53;;;3.57;;
11078;SDS011;5592;49.234;7.268;2023-09-19T05:06:07;7.03;;;3.73;;
11078;SDS011;5592;49.234;7.268;2023-09-19T05:08:32;10.40;;;3.13;;
11078;SDS011;5592;49.234;7.268;2023-09-19T05:10:58;7.70;;;2.83;;
11078;SDS011;5592;49.234;7.268;2023-09-19T05:13:27;5.10;;;3.30;;
11078;SDS011;5592;49.234;7.268;2023-09-19T05:15:52;5.93;;;2.90;;
11078;SDS011;5592;49.234;7.268;2023-09-19T05:18:18;17.33;;;3.50;;
11078;SDS011;5592;49.234;7.268;2023-09-19T05:20:43;6.20;;;2.70;;
11078;SDS011;5592;49.234;7.268;2023-09-19T05:23:09;8.57;;;3.00;;
11078;SDS011;5592;49.234;7.268;2023-09-19T05:25:37;6.67;;;3.13;;
11078;SDS011;5592;49.234;7.268;2023-09-19T05:28:08;10.87;;;3.50;;
11078;SDS011;5592;49.234;7.268;2023-09-19T05:30:36;5.87;;;3.17;;
11078;SDS011;5592;49.234;7.268;2023-09-19T05:33:03;11.27;;;3.07;;
11078;SDS011;5592;49.234;7.268;2023-09-19T05:35:29;9.77;;;3.67;;
11078;SDS011;5592;49.234;7.268;2023-09-19T05:37:56;8.40;;;3.50;;
11078;SDS011;5592;49.234;7.268;2023-09-19T05:40:23;6.50;;;2.77;;
11078;SDS011;5592;49.234;7.268;2023-09-19T05:42:50;7.77;;;3.13;;
11078;SDS011;5592;49.234;7.268;2023-09-19T05:45:16;6.07;;;3.30;;
11078;SDS011;5592;49.234;7.268;2023-09-19T05:47:50;7.40;;;2.67;;
11078;SDS011;5592;49.234;7.268;2023-09-19T05:50:21;6.33;;;2.80;;
11078;SDS011;5592;49.234;7.268;2023-09-19T05:52:51;4.77;;;2.80;;
11078;SDS011;5592;49.234;7.268;2023-09-19T05:57:53;6.87;;;3.00;;
11078;SDS011;5592;49.234;7.268;2023-09-19T06:00:22;7.30;;;2.87;;
11078;SDS011;5592;49.234;7.268;2023-09-19T06:02:55;7.47;;;2.60;;
11078;SDS011;5592;49.234;7.268;2023-09-19T06:05:24;21.83;;;3.10;;
11078;SDS011;5592;49.234;7.268;2023-09-19T06:07:58;8.03;;;2.30;;
11078;SDS011;5592;49.234;7.268;2023-09-19T06:10:33;9.47;;;3.00;;
11078;SDS011;5592;49.234;7.268;2023-09-19T06:13:01;7.13;;;2.43;;
11078;SDS011;5592;49.234;7.268;2023-09-19T06:15:32;13.53;;;2.33;;
11078;SDS011;5592;49.234;7.268;2023-09-19T06:18:00;8.03;;;2.83;;
11078;SDS011;5592;49.234;7.268;2023-09-19T06:20:28;3.17;;;2.10;;
11078;SDS011;5592;49.234;7.268;2023-09-19T06:23:22;6.20;;;2.57;;
11078;SDS011;5592;49.234;7.268;2023-09-19T06:25:55;4.70;;;2.03;;
11078;SDS011;5592;49.234;7.268;2023-09-19T06:28:23;4.77;;;2.07;;
11078;SDS011;5592;49.234;7.268;2023-09-19T06:31:01;4.33;;;2.00;;
11078;SDS011;5592;49.234;7.268;2023-09-19T06:33:34;6.20;;;2.20;;
11078;SDS011;5592;49.234;7.268;2023-09-19T06:36:05;8.50;;;3.07;;
11078;SDS011;5592;49.234;7.268;2023-09-19T06:38:36;6.70;;;2.10;;
11078;SDS011;5592;49.234;7.268;2023-09-19T06:41:06;4.57;;;2.00;;
11078;SDS011;5592;49.234;7.268;2023-09-19T06:43:54;2.93;;;1.73;;
11078;SDS011;5592;49.234;7.268;2023-09-19T06:46:24;7.57;;;2.20;;
11078;SDS011;5592;49.234;7.268;2023-09-19T06:48:50;5.30;;;1.80;;
11078;SDS011;5592;49.234;7.268;2023-09-19T06:51:17;6.93;;;1.97;;
11078;SDS011;5592;49.234;7.268;2023-09-19T06:53:43;4.97;;;2.17;;
11078;SDS011;5592;49.234;7.268;2023-09-19T06:56:09;4.03;;;2.23;;
11078;SDS011;5592;49.234;7.268;2023-09-19T06:58:36;4.63;;;1.80;;
11078;SDS011;5592;49.234;7.268;2023-09-19T07:01:06;4.40;;;1.83;;
11078;SDS011;5592;49.234;7.268;2023-09-19T07:03:35;7.20;;;2.03;;
11078;SDS011;5592;49.234;7.268;2023-09-19T07:08:43;4.37;;;2.30;;
11078;SDS011;5592;49.234;7.268;2023-09-19T07:11:11;5.33;;;2.20;;
11078;SDS011;5592;49.234;7.268;2023-09-19T07:13:43;5.47;;;2.43;;
11078;SDS011;5592;49.234;7.268;2023-09-19T07:16:10;6.57;;;2.13;;
11078;SDS011;5592;49.234;7.268;2023-09-19T07:18:52;6.83;;;2.37;;
11078;SDS011;5592;49.234;7.268;2023-09-19T07:21:27;6.70;;;2.10;;
11078;SDS011;5592;49.234;7.268;2023-09-19T07:24:15;6.17;;;1.77;;
11078;SDS011;5592;49.234;7.268;2023-09-19T07:26:48;7.37;;;2.00;;
11078;SDS011;5592;49.234;7.268;2023-09-19T07:29:14;3.40;;;2.20;;
11078;SDS011;5592;49.234;7.268;2023-09-19T07:31:40;4.10;;;2.43;;
11078;SDS011;5592;49.234;7.268;2023-09-19T07:34:06;5.23;;;2.07;;
11078;SDS011;5592;49.234;7.268;2023-09-19T07:36:39;3.90;;;1.70;;
11078;SDS011;5592;49.234;7.268;2023-09-19T07:39:06;6.37;;;2.00;;
11078;SDS011;5592;49.234;7.268;2023-09-19T07:41:33;3.67;;;2.10;;
11078;SDS011;5592;49.234;7.268;2023-09-19T07:44:00;4.83;;;1.67;;
11078;SDS011;5592;49.234;7.268;2023-09-19T07:46:27;4.87;;;1.97;;
11078;SDS011;5592;49.234;7.268;2023-09-19T07:48:59;7.43;;;2.07;;
11078;SDS011;5592;49.234;7.268;2023-09-19T07:51:27;7.27;;;2.13;;
11078;SDS011;5592;49.234;7.268;2023-09-19T07:53:58;6.23;;;1.80;;
11078;SDS011;5592;49.234;7.268;2023-09-19T07:56:26;7.50;;;2.00;;
11078;SDS011;5592;49.234;7.268;2023-09-19T07:58:52;5.87;;;2.00;;
11078;SDS011;5592;49.234;7.268;2023-09-19T08:01:19;4.50;;;2.10;;
11078;SDS011;5592;49.234;7.268;2023-09-19T08:03:45;6.47;;;2.07;;
11078;SDS011;5592;49.234;7.268;2023-09-19T08:06:14;6.33;;;2.50;;
11078;SDS011;5592;49.234;7.268;2023-09-19T08:08:46;5.50;;;2.60;;
11078;SDS011;5592;49.234;7.268;2023-09-19T08:11:12;6.17;;;2.10;;
11078;SDS011;5592;49.234;7.268;2023-09-19T08:13:38;8.03;;;2.57;;
11078;SDS011;5592;49.234;7.268;2023-09-19T08:16:12;7.60;;;2.33;;
11078;SDS011;5592;49.234;7.268;2023-09-19T08:18:41;3.93;;;1.93;;
11078;SDS011;5592;49.234;7.268;2023-09-19T08:21:07;9.13;;;2.40;;
11078;SDS011;5592;49.234;7.268;2023-09-19T08:23:37;5.90;;;2.60;;
11078;SDS011;5592;49.234;7.268;2023-09-19T08:26:03;5.30;;;2.13;;
11078;SDS011;5592;49.234;7.268;2023-09-19T08:28:34;8.70;;;2.93;;
11078;SDS011;5592;49.234;7.268;2023-09-19T08:31:03;5.87;;;2.07;;
11078;SDS011;5592;49.234;7.268;2023-09-19T08:33:34;10.97;;;2.03;;
11078;SDS011;5592;49.234;7.268;2023-09-19T08:36:01;3.30;;;2.03;;
11078;SDS011;5592;49.234;7.268;2023-09-19T08:38:31;5.03;;;1.90;;
11078;SDS011;5592;49.234;7.268;2023-09-19T08:41:08;5.07;;;1.93;;
11078;SDS011;5592;49.234;7.268;2023-09-19T08:43:35;4.30;;;2.20;;
11078;SDS011;5592;49.234;7.268;2023-09-19T08:46:16;7.50;;;2.37;;
11078;SDS011;5592;49.234;7.268;2023-09-19T08:48:45;5.30;;;2.70;;
11078;SDS011;5592;49.234;7.268;2023-09-19T08:54:10;5.03;;;1.83;;
11078;SDS011;5592;49.234;7.268;2023-09-19T08:56:47;5.27;;;1.70;;
11078;SDS011;5592;49.234;7.268;2023-09-19T08:59:14;5.33;;;2.30;;
11078;SDS011;5592;49.234;7.268;2023-09-19T09:01:51;4.50;;;2.20;;
11078;SDS011;5592;49.234;7.268;2023-09-19T09:04:22;4.90;;;2.43;;
11078;SDS011;5592;49.234;7.268;2023-09-19T09:06:49;3.77;;;1.80;;
11078;SDS011;5592;49.234;7.268;2023-09-19T09:09:18;7.77;;;2.33;;
11078;SDS011;5592;49.234;7.268;2023-09-19T09:11:48;6.83;;;1.63;;
11078;SDS011;5592;49.234;7.268;2023-09-19T09:14:23;4.43;;;2.03;;
11078;SDS011;5592;49.234;7.268;2023-09-19T09:16:50;3.47;;;1.70;;
11078;SDS011;5592;49.234;7.268;2023-09-19T09:19:16;2.83;;;2.13;;
11078;SDS011;5592;49.234;7.268;2023-09-19T09:21:50;9.17;;;1.87;;
11078;SDS011;5592;49.234;7.268;2023-09-19T09:24:29;4.70;;;2.00;;
11078;SDS011;5592;49.234;7.268;2023-09-19T09:26:58;3.07;;;1.80;;
11078;SDS011;5592;49.234;7.268;2023-09-19T09:29:43;4.30;;;2.10;;
11078;SDS011;5592;49.234;7.268;2023-09-19T09:34:47;3.63;;;1.77;;
11078;SDS011;5592;49.234;7.268;2023-09-19T09:37:15;4.40;;;1.90;;
11078;SDS011;5592;49.234;7.268;2023-09-19T09:39:50;4.37;;;1.77;;
11078;SDS011;5592;49.234;7.268;2023-09-19T09:42:34;5.00;;;1.83;;
11078;SDS011;5592;49.234;7.268;2023-09-19T09:47:55;3.63;;;1.50;;
11078;SDS011;5592;49.234;7.268;2023-09-19T09:53:33;6.47;;;1.90;;
11078;SDS011;5592;49.234;7.268;2023-09-19T09:58:40;6.47;;;2.00;;
11078;SDS011;5592;49.234;7.268;2023-09-19T10:01:20;4.77;;;1.67;;
11078;SDS011;5592;49.234;7.268;2023-09-19T10:03:51;5.00;;;2.57;;
11078;SDS011;5592;49.234;7.268;2023-09-19T10:06:23;5.37;;;2.00;;
11078;SDS011;5592;49.234;7.268;2023-09-19T10:09:04;5.77;;;1.60;;
11078;SDS011;5592;49.234;7.268;2023-09-19T10:11:43;5.10;;;1.63;;
11078;SDS011;5592;49.234;7.268;2023-09-19T10:14:22;4.20;;;1.70;;
11078;SDS011;5592;49.234;7.268;2023-09-19T10:16:54;4.03;;;1.77;;
11078;SDS011;5592;49.234;7.268;2023-09-19T10:19:30;2.40;;;1.70;;
11078;SDS011;5592;49.234;7.268;2023-09-19T10:22:02;4.60;;;2.10;;
11078;SDS011;5592;49.234;7.268;2023-09-19T10:24:30;6.20;;;1.47;;
11078;SDS011;5592;49.234;7.268;2023-09-19T10:26:59;3.70;;;1.53;;
11078;SDS011;5592;49.234;7.268;2023-09-19T10:29:25;3.03;;;1.77;;
11078;SDS011;5592;49.234;7.268;2023-09-19T10:31:59;4.00;;;1.87;;
11078;SDS011;5592;49.234;7.268;2023-09-19T10:34:29;4.73;;;2.00;;
11078;SDS011;5592;49.234;7.268;2023-09-19T10:36:58;4.20;;;1.53;;
11078;SDS011;5592;49.234;7.268;2023-09-19T10:39:30;3.40;;;1.73;;
11078;SDS011;5592;49.234;7.268;2023-09-19T10:42:01;3.03;;;1.73;;
11078;SDS011;5592;49.234;7.268;2023-09-19T10:44:31;4.53;;;1.80;;
11078;SDS011;5592;49.234;7.268;2023-09-19T10:46:57;6.60;;;1.40;;
11078;SDS011;5592;49.234;7.268;2023-09-19T10:49:24;4.67;;;1.60;;
11078;SDS011;5592;49.234;7.268;2023-09-19T10:51:52;5.47;;;1.87;;
11078;SDS011;5592;49.234;7.268;2023-09-19T10:54:23;6.10;;;1.77;;
11078;SDS011;5592;49.234;7.268;2023-09-19T10:56:53;4.60;;;1.70;;
11078;SDS011;5592;49.234;7.268;2023-09-19T10:59:20;3.83;;;1.53;;
11078;SDS011;5592;49.234;7.268;2023-09-19T11:01:51;5.27;;;1.97;;
11078;SDS011;5592;49.234;7.268;2023-09-19T11:04:25;1.87;;;1.30;;
11078;SDS011;5592;49.234;7.268;2023-09-19T11:07:29;3.90;;;1.40;;
11078;SDS011;5592;49.234;7.268;2023-09-19T11:09:51;1.73;;;1.23;;
11078;SDS011;5592;49.234;7.268;2023-09-19T11:15:08;6.30;;;1.60;;
11078;SDS011;5592;49.234;7.268;2023-09-19T11:17:39;5.97;;;2.17;;
11078;SDS011;5592;49.234;7.268;2023-09-19T11:30:42;2.47;;;1.33;;
11078;SDS011;5592;49.234;7.268;2023-09-19T11:33:18;3.70;;;1.90;;
11078;SDS011;5592;49.234;7.268;2023-09-19T11:43:51;3.90;;;1.50;;
11078;SDS011;5592;49.234;7.268;2023-09-19T11:46:20;3.00;;;1.60;;
11078;SDS011;5592;49.234;7.268;2023-09-19T11:48:49;2.57;;;1.40;;
11078;SDS011;5592;49.234;7.268;2023-09-19T11:51:15;4.17;;;2.00;;
11078;SDS011;5592;49.234;7.268;2023-09-19T11:53:58;3.77;;;1.67;;
11078;SDS011;5592;49.234;7.268;2023-09-19T11:56:27;3.80;;;1.30;;
11078;SDS011;5592;49.234;7.268;2023-09-19T11:58:54;3.47;;;1.70;;
11078;SDS011;5592;49.234;7.268;2023-09-19T12:01:22;6.17;;;1.60;;
11078;SDS011;5592;49.234;7.268;2023-09-19T12:03:52;5.70;;;1.67;;
11078;SDS011;5592;49.234;7.268;2023-09-19T12:06:19;3.67;;;1.30;;
11078;SDS011;5592;49.234;7.268;2023-09-19T12:08:47;5.20;;;1.33;;
11078;SDS011;5592;49.234;7.268;2023-09-19T12:11:14;5.00;;;2.13;;
11078;SDS011;5592;49.234;7.268;2023-09-19T12:13:45;4.13;;;1.43;;
11078;SDS011;5592;49.234;7.268;2023-09-19T12:18:40;3.80;;;1.30;;
11078;SDS011;5592;49.234;7.268;2023-09-19T12:21:25;10.60;;;1.97;;
11078;SDS011;5592;49.234;7.268;2023-09-19T12:26:38;2.63;;;1.20;;
11078;SDS011;5592;49.234;7.268;2023-09-19T12:29:12;3.20;;;1.50;;
11078;SDS011;5592;49.234;7.268;2023-09-19T12:31:50;5.63;;;1.83;;
11078;SDS011;5592;49.234;7.268;2023-09-19T12:34:21;3.20;;;1.77;;
11078;SDS011;5592;49.234;7.268;2023-09-19T12:36:48;4.67;;;1.43;;
11078;SDS011;5592;49.234;7.268;2023-09-19T12:39:23;1.70;;;1.33;;
11078;SDS011;5592;49.234;7.268;2023-09-19T12:41:54;7.77;;;1.90;;
11078;SDS011;5592;49.234;7.268;2023-09-19T12:44:21;2.67;;;1.37;;
11078;SDS011;5592;49.234;7.268;2023-09-19T12:46:50;4.57;;;1.70;;
11078;SDS011;5592;49.234;7.268;2023-09-19T12:49:16;1.93;;;1.17;;
11078;SDS011;5592;49.234;7.268;2023-09-19T12:51:42;6.73;;;1.87;;
11078;SDS011;5592;49.234;7.268;2023-09-19T12:54:09;15.33;;;2.30;;
11078;SDS011;5592;49.234;7.268;2023-09-19T12:56:42;2.53;;;1.20;;
11078;SDS011;5592;49.234;7.268;2023-09-19T12:59:14;3.60;;;1.80;;
11078;SDS011;5592;49.234;7.268;2023-09-19T13:01:41;3.97;;;1.40;;
11078;SDS011;5592;49.234;7.268;2023-09-19T13:04:19;3.07;;;1.40;;
11078;SDS011;5592;49.234;7.268;2023-09-19T13:06:53;4.80;;;1.63;;
11078;SDS011;5592;49.234;7.268;2023-09-19T13:09:21;3.87;;;1.40;;
11078;SDS011;5592;49.234;7.268;2023-09-19T13:11:50;6.33;;;1.80;;
11078;SDS011;5592;49.234;7.268;2023-09-19T13:16:55;4.10;;;1.50;;
11078;SDS011;5592;49.234;7.268;2023-09-19T13:19:38;4.23;;;1.20;;
11078;SDS011;5592;49.234;7.268;2023-09-19T13:22:05;4.60;;;1.47;;
11078;SDS011;5592;49.234;7.268;2023-09-19T13:24:51;5.20;;;1.67;;
11078;SDS011;5592;49.234;7.268;2023-09-19T13:27:17;1.73;;;1.23;;
11078;SDS011;5592;49.234;7.268;2023-09-19T13:29:42;1.60;;;1.10;;
11078;SDS011;5592;49.234;7.268;2023-09-19T13:32:08;10.73;;;1.33;;
11078;SDS011;5592;49.234;7.268;2023-09-19T13:34:36;3.50;;;1.30;;
11078;SDS011;5592;49.234;7.268;2023-09-19T13:37:03;10.87;;;1.40;;
11078;SDS011;5592;49.234;7.268;2023-09-19T13:39:29;3.00;;;1.50;;
11078;SDS011;5592;49.234;7.268;2023-09-19T13:41:55;2.90;;;1.90;;
11078;SDS011;5592;49.234;7.268;2023-09-19T13:44:21;2.43;;;1.27;;
11078;SDS011;5592;49.234;7.268;2023-09-19T13:46:46;1.50;;;1.30;;
11078;SDS011;5592;49.234;7.268;2023-09-19T13:49:12;4.67;;;1.50;;
11078;SDS011;5592;49.234;7.268;2023-09-19T13:51:38;3.03;;;1.67;;
11078;SDS011;5592;49.234;7.268;2023-09-19T13:54:03;3.83;;;2.10;;
11078;SDS011;5592;49.234;7.268;2023-09-19T13:56:30;2.87;;;1.27;;
11078;SDS011;5592;49.234;7.268;2023-09-19T13:58:56;2.00;;;1.23;;
11078;SDS011;5592;49.234;7.268;2023-09-19T14:01:22;2.80;;;1.40;;
11078;SDS011;5592;49.234;7.268;2023-09-19T14:03:48;1.97;;;1.40;;
11078;SDS011;5592;49.234;7.268;2023-09-19T14:06:16;4.20;;;1.20;;
11078;SDS011;5592;49.234;7.268;2023-09-19T14:08:45;1.90;;;1.30;;
11078;SDS011;5592;49.234;7.268;2023-09-19T14:11:12;3.00;;;1.43;;
11078;SDS011;5592;49.234;7.268;2023-09-19T14:13:39;2.40;;;1.40;;
11078;SDS011;5592;49.234;7.268;2023-09-19T14:16:05;3.70;;;1.50;;
11078;SDS011;5592;49.234;7.268;2023-09-19T14:18:33;3.00;;;1.03;;
11078;SDS011;5592;49.234;7.268;2023-09-19T14:21:05;2.13;;;1.30;;
11078;SDS011;5592;49.234;7.268;2023-09-19T14:23:35;2.63;;;1.03;;
11078;SDS011;5592;49.234;7.268;2023-09-19T14:26:01;2.20;;;1.03;;
11078;SDS011;5592;49.234;7.268;2023-09-19T14:28:27;4.47;;;1.50;;
11078;SDS011;5592;49.234;7.268;2023-09-19T14:30:54;4.93;;;1.50;;
11078;SDS011;5592;49.234;7.268;2023-09-19T14:33:20;2.27;;;1.30;;
11078;SDS011;5592;49.234;7.268;2023-09-19T14:35:46;2.13;;;1.40;;
11078;SDS011;5592;49.234;7.268;2023-09-19T14:38:11;1.90;;;1.10;;
11078;SDS011;5592;49.234;7.268;2023-09-19T14:40:37;2.00;;;1.50;;
11078;SDS011;5592;49.234;7.268;2023-09-19T14:43:04;1.57;;;1.00;;
11078;SDS011;5592;49.234;7.268;2023-09-19T14:45:30;2.30;;;1.47;;
11078;SDS011;5592;49.234;7.268;2023-09-19T14:47:56;3.60;;;1.30;;
11078;SDS011;5592;49.234;7.268;2023-09-19T14:50:25;2.57;;;1.30;;
11078;SDS011;5592;49.234;7.268;2023-09-19T14:52:51;5.70;;;1.40;;
11078;SDS011;5592;49.234;7.268;2023-09-19T14:55:19;8.03;;;2.10;;
11078;SDS011;5592;49.234;7.268;2023-09-19T14:57:48;2.57;;;1.20;;
11078;SDS011;5592;49.234;7.268;2023-09-19T15:00:16;2.00;;;1.20;;
11078;SDS011;5592;49.234;7.268;2023-09-19T15:02:42;2.10;;;1.00;;
11078;SDS011;5592;49.234;7.268;2023-09-19T15:05:10;4.13;;;1.17;;
11078;SDS011;5592;49.234;7.268;2023-09-19T15:07:36;3.03;;;1.10;;
11078;SDS011;5592;49.234;7.268;2023-09-19T15:10:03;2.90;;;1.90;;
11078;SDS011;5592;49.234;7.268;2023-09-19T15:12:31;4.63;;;1.30;;
11078;SDS011;5592;49.234;7.268;2023-09-19T15:14:58;2.13;;;1.33;;
11078;SDS011;5592;49.234;7.268;2023-09-19T15:17:23;2.03;;;1.20;;
11078;SDS011;5592;49.234;7.268;2023-09-19T15:19:50;3.50;;;1.30;;
11078;SDS011;5592;49.234;7.268;2023-09-19T15:22:16;3.63;;;1.40;;
11078;SDS011;5592;49.234;7.268;2023-09-19T15:24:42;2.93;;;1.30;;
11078;SDS011;5592;49.234;7.268;2023-09-19T15:27:07;3.07;;;1.20;;
11078;SDS011;5592;49.234;7.268;2023-09-19T15:29:33;1.77;;;1.30;;
11078;SDS011;5592;49.234;7.268;2023-09-19T15:31:58;2.50;;;1.37;;
11078;SDS011;5592;49.234;7.268;2023-09-19T15:34:27;8.60;;;1.60;;
11078;SDS011;5592;49.234;7.268;2023-09-19T15:36:54;3.43;;;1.20;;
11078;SDS011;5592;49.234;7.268;2023-09-19T15:39:19;1.97;;;1.30;;
11078;SDS011;5592;49.234;7.268;2023-09-19T15:41:47;1.93;;;1.30;;
11078;SDS011;5592;49.234;7.268;2023-09-19T15:44:16;2.73;;;1.57;;
11078;SDS011;5592;49.234;7.268;2023-09-19T15:46:43;2.10;;;1.40;;
11078;SDS011;5592;49.234;7.268;2023-09-19T15:49:10;4.87;;;1.67;;
11078;SDS011;5592;49.234;7.268;2023-09-19T15:51:36;4.13;;;1.30;;
11078;SDS011;5592;49.234;7.268;2023-09-19T15:54:10;3.37;;;1.53;;
11078;SDS011;5592;49.234;7.268;2023-09-19T15:56:40;1.93;;;1.00;;
11078;SDS011;5592;49.234;7.268;2023-09-19T15:59:10;1.90;;;1.30;;
11078;SDS011;5592;49.234;7.268;2023-09-19T16:01:39;1.83;;;1.30;;
11078;SDS011;5592;49.234;7.268;2023-09-19T16:04:08;3.33;;;1.30;;
11078;SDS011;5592;49.234;7.268;2023-09-19T16:06:34;1.40;;;1.10;;